South Windham, CT (06266)

11:25 AM EST on December 07, 2016 (GMT -0500)
Carriage Lane | | Change Station

Elev 285 ft 41.72 °N, 72.17 °W | Updated 1 second ago

Overcast
Overcast
42.1 °F
Feels Like 42 °F
N
0.0
Wind Variable Wind from WNW
Gusts 0.0 mph

Today
High -- | Low -- °F
--% Chance of Precip.
Yesterday
High -- | Low -- °F
Precip. -- in
Pressure 29.99 in
Visibility 10.0 miles
Clouds Mostly Cloudy 1200 ft
Overcast 3300 ft
Windchill 42 °F
Dew Point 38 °F
Humidity 87%
Rainfall 0.17 in
Snow Depth Not available.
7:02 AM 4:18 PM
First Quarter, 54% visible
METAR KIJD 071552Z AUTO 00000KT 10SM BKN012 OVC033 06/03 A2998 RMK AO2 SLP154 T00560028
Pressure 29.99 in
Visibility 10.0 miles
Clouds Mostly Cloudy 1200 ft
Overcast 3300 ft
Windchill 42 °F
Dew Point 38 °F
Humidity 87%
Rainfall 0.17 in
Snow Depth Not available.
7:02 AM 4:18 PM
First Quarter, 54% visible
METAR KIJD 071552Z AUTO 00000KT 10SM BKN012 OVC033 06/03 A2998 RMK AO2 SLP154 T00560028

10-Day Weather Forecast

Almanac

Astronomy

Dec. 07, 2016 Rise Set
Actual Time
Civil Twilight
Nautical Twilight
Astronomical Twilight
Moon
Length of Visible Light
Length of Day
Tomorrow will be .
, % of the Moon is Illuminated

Today's Extremes

State Highs State Lows

Community

WunderPhotos

Upload Photos

1,956,132 photos uploaded!

WunderBlog® & News

Nearby

Air Quality

  Air Quality AQ Index Pollutant
Not available.

Snow Depth

Station Depth Elevation

Earthquake Activity

City Distance Mag. Time & Date
Minimum magnitude displayed is 2.5.

Coastal Water Temperatures

Place Temperature

Stations

Nearby Weather Stations

Station Location Temp. Windchill Dew Point Humidity Wind Precip. Elev Updated Type
                   

Watches & Warnings

There are currently no watches in effect.